sensor_id;sensor_type;location;lat;lon;timestamp;P1;durP1;ratioP1;P2;durP2;ratioP2
9720;SDS011;4899;42.644;23.366;2022-07-30T00:01:18;36.80;;;5.77;;
9720;SDS011;4899;42.644;23.366;2022-07-30T00:03:59;3.47;;;3.00;;
9720;SDS011;4899;42.644;23.366;2022-07-30T00:06:26;7.50;;;4.23;;
9720;SDS011;4899;42.644;23.366;2022-07-30T00:09:06;8.90;;;4.60;;
9720;SDS011;4899;42.644;23.366;2022-07-30T00:11:34;10.50;;;3.70;;
9720;SDS011;4899;42.644;23.366;2022-07-30T00:14:01;7.33;;;3.67;;
9720;SDS011;4899;42.644;23.366;2022-07-30T00:16:28;4.40;;;3.00;;
9720;SDS011;4899;42.644;23.366;2022-07-30T00:18:55;3.87;;;3.53;;
9720;SDS011;4899;42.644;23.366;2022-07-30T00:21:22;4.87;;;4.00;;
9720;SDS011;4899;42.644;23.366;2022-07-30T00:23:49;3.30;;;3.03;;
9720;SDS011;4899;42.644;23.366;2022-07-30T00:26:17;4.73;;;4.00;;
9720;SDS011;4899;42.644;23.366;2022-07-30T00:28:44;3.53;;;3.23;;
9720;SDS011;4899;42.644;23.366;2022-07-30T00:31:11;7.53;;;4.10;;
9720;SDS011;4899;42.644;23.366;2022-07-30T00:33:38;6.60;;;3.47;;
9720;SDS011;4899;42.644;23.366;2022-07-30T00:36:04;11.00;;;4.13;;
9720;SDS011;4899;42.644;23.366;2022-07-30T00:38:31;6.20;;;3.63;;
9720;SDS011;4899;42.644;23.366;2022-07-30T00:41:02;15.27;;;4.67;;
9720;SDS011;4899;42.644;23.366;2022-07-30T00:43:31;8.10;;;4.17;;
9720;SDS011;4899;42.644;23.366;2022-07-30T00:45:58;4.37;;;3.60;;
9720;SDS011;4899;42.644;23.366;2022-07-30T00:48:24;4.17;;;3.67;;
9720;SDS011;4899;42.644;23.366;2022-07-30T00:50:51;3.80;;;3.50;;
9720;SDS011;4899;42.644;23.366;2022-07-30T00:53:18;5.77;;;3.50;;
9720;SDS011;4899;42.644;23.366;2022-07-30T00:55:45;5.57;;;3.70;;
9720;SDS011;4899;42.644;23.366;2022-07-30T00:58:12;4.07;;;3.73;;
9720;SDS011;4899;42.644;23.366;2022-07-30T01:00:44;19.20;;;4.87;;
9720;SDS011;4899;42.644;23.366;2022-07-30T01:03:11;4.10;;;3.70;;
9720;SDS011;4899;42.644;23.366;2022-07-30T01:05:43;5.13;;;3.77;;
9720;SDS011;4899;42.644;23.366;2022-07-30T01:08:10;4.13;;;3.80;;
9720;SDS011;4899;42.644;23.366;2022-07-30T01:10:37;4.70;;;3.50;;
9720;SDS011;4899;42.644;23.366;2022-07-30T01:13:04;6.67;;;4.37;;
9720;SDS011;4899;42.644;23.366;2022-07-30T01:15:32;18.77;;;5.03;;
9720;SDS011;4899;42.644;23.366;2022-07-30T01:18:02;5.80;;;3.63;;
9720;SDS011;4899;42.644;23.366;2022-07-30T01:20:33;10.30;;;4.23;;
9720;SDS011;4899;42.644;23.366;2022-07-30T01:23:04;7.67;;;4.23;;
9720;SDS011;4899;42.644;23.366;2022-07-30T01:25:49;9.00;;;4.03;;
9720;SDS011;4899;42.644;23.366;2022-07-30T01:28:21;3.83;;;3.53;;
9720;SDS011;4899;42.644;23.366;2022-07-30T01:30:51;3.70;;;3.40;;
9720;SDS011;4899;42.644;23.366;2022-07-30T01:33:29;5.50;;;3.77;;
9720;SDS011;4899;42.644;23.366;2022-07-30T01:36:16;6.93;;;4.33;;
9720;SDS011;4899;42.644;23.366;2022-07-30T01:38:46;4.10;;;3.63;;
9720;SDS011;4899;42.644;23.366;2022-07-30T01:41:16;9.33;;;4.63;;
9720;SDS011;4899;42.644;23.366;2022-07-30T01:43:44;7.30;;;3.73;;
9720;SDS011;4899;42.644;23.366;2022-07-30T01:46:14;5.57;;;3.73;;
9720;SDS011;4899;42.644;23.366;2022-07-30T01:48:42;38.13;;;6.53;;
9720;SDS011;4899;42.644;23.366;2022-07-30T01:51:11;14.17;;;4.70;;
9720;SDS011;4899;42.644;23.366;2022-07-30T01:53:39;6.50;;;4.07;;
9720;SDS011;4899;42.644;23.366;2022-07-30T01:56:07;6.80;;;3.87;;
9720;SDS011;4899;42.644;23.366;2022-07-30T01:58:38;5.17;;;4.17;;
9720;SDS011;4899;42.644;23.366;2022-07-30T02:01:07;31.77;;;6.03;;
9720;SDS011;4899;42.644;23.366;2022-07-30T02:03:35;14.87;;;5.07;;
9720;SDS011;4899;42.644;23.366;2022-07-30T02:06:11;13.83;;;5.87;;
9720;SDS011;4899;42.644;23.366;2022-07-30T02:08:43;16.93;;;4.97;;
9720;SDS011;4899;42.644;23.366;2022-07-30T02:11:35;15.73;;;5.10;;
9720;SDS011;4899;42.644;23.366;2022-07-30T02:14:36;4.90;;;4.07;;
9720;SDS011;4899;42.644;23.366;2022-07-30T02:17:06;6.87;;;4.40;;
9720;SDS011;4899;42.644;23.366;2022-07-30T02:19:37;4.00;;;3.70;;
9720;SDS011;4899;42.644;23.366;2022-07-30T02:22:10;18.63;;;7.80;;
9720;SDS011;4899;42.644;23.366;2022-07-30T02:24:40;5.97;;;5.37;;
9720;SDS011;4899;42.644;23.366;2022-07-30T02:27:11;18.03;;;10.80;;
9720;SDS011;4899;42.644;23.366;2022-07-30T02:29:42;14.97;;;6.03;;
9720;SDS011;4899;42.644;23.366;2022-07-30T02:32:11;6.30;;;4.70;;
9720;SDS011;4899;42.644;23.366;2022-07-30T02:34:41;6.47;;;3.93;;
9720;SDS011;4899;42.644;23.366;2022-07-30T02:37:11;7.60;;;4.00;;
9720;SDS011;4899;42.644;23.366;2022-07-30T02:39:40;5.50;;;4.30;;
9720;SDS011;4899;42.644;23.366;2022-07-30T02:42:08;4.60;;;3.83;;
9720;SDS011;4899;42.644;23.366;2022-07-30T02:44:38;9.47;;;4.17;;
9720;SDS011;4899;42.644;23.366;2022-07-30T02:47:10;6.73;;;4.70;;
9720;SDS011;4899;42.644;23.366;2022-07-30T02:49:40;4.63;;;4.17;;
9720;SDS011;4899;42.644;23.366;2022-07-30T02:52:09;6.17;;;3.40;;
9720;SDS011;4899;42.644;23.366;2022-07-30T02:54:39;4.57;;;4.20;;
9720;SDS011;4899;42.644;23.366;2022-07-30T02:57:07;4.73;;;3.90;;
9720;SDS011;4899;42.644;23.366;2022-07-30T02:59:37;4.50;;;4.20;;
9720;SDS011;4899;42.644;23.366;2022-07-30T03:02:07;5.90;;;4.10;;
9720;SDS011;4899;42.644;23.366;2022-07-30T03:04:37;5.93;;;4.37;;
9720;SDS011;4899;42.644;23.366;2022-07-30T03:07:05;5.93;;;3.83;;
9720;SDS011;4899;42.644;23.366;2022-07-30T03:09:33;9.53;;;4.90;;
9720;SDS011;4899;42.644;23.366;2022-07-30T03:12:02;4.83;;;3.97;;
9720;SDS011;4899;42.644;23.366;2022-07-30T03:14:30;4.57;;;4.00;;
9720;SDS011;4899;42.644;23.366;2022-07-30T03:16:57;4.57;;;3.63;;
9720;SDS011;4899;42.644;23.366;2022-07-30T03:19:29;4.57;;;4.17;;
9720;SDS011;4899;42.644;23.366;2022-07-30T03:22:00;8.53;;;4.57;;
9720;SDS011;4899;42.644;23.366;2022-07-30T03:24:32;29.93;;;6.40;;
9720;SDS011;4899;42.644;23.366;2022-07-30T03:27:30;9.57;;;4.63;;
9720;SDS011;4899;42.644;23.366;2022-07-30T03:30:32;7.47;;;4.13;;
9720;SDS011;4899;42.644;23.366;2022-07-30T03:34:57;69.77;;;10.30;;
9720;SDS011;4899;42.644;23.366;2022-07-30T03:42:07;50.37;;;8.13;;
9720;SDS011;4899;42.644;23.366;2022-07-30T03:45:04;6.43;;;4.20;;
9720;SDS011;4899;42.644;23.366;2022-07-30T03:47:47;89.87;;;11.53;;
9720;SDS011;4899;42.644;23.366;2022-07-30T03:51:50;67.47;;;9.73;;
9720;SDS011;4899;42.644;23.366;2022-07-30T03:55:01;5.53;;;3.73;;
9720;SDS011;4899;42.644;23.366;2022-07-30T03:56:48;46.67;;;8.07;;
9720;SDS011;4899;42.644;23.366;2022-07-30T03:59:18;84.73;;;11.37;;
9720;SDS011;4899;42.644;23.366;2022-07-30T04:01:47;107.87;;;12.80;;
9720;SDS011;4899;42.644;23.366;2022-07-30T04:04:20;53.47;;;8.40;;
9720;SDS011;4899;42.644;23.366;2022-07-30T04:07:04;14.43;;;5.07;;
9720;SDS011;4899;42.644;23.366;2022-07-30T04:09:31;19.60;;;5.90;;
9720;SDS011;4899;42.644;23.366;2022-07-30T04:16:30;45.47;;;9.90;;
9720;SDS011;4899;42.644;23.366;2022-07-30T04:18:17;65.13;;;8.93;;
9720;SDS011;4899;42.644;23.366;2022-07-30T04:20:46;27.97;;;6.53;;
9720;SDS011;4899;42.644;23.366;2022-07-30T04:26:48;61.17;;;8.50;;
9720;SDS011;4899;42.644;23.366;2022-07-30T04:29:49;42.57;;;7.33;;
9720;SDS011;4899;42.644;23.366;2022-07-30T04:32:47;31.53;;;6.10;;
9720;SDS011;4899;42.644;23.366;2022-07-30T04:35:46;19.67;;;5.20;;
9720;SDS011;4899;42.644;23.366;2022-07-30T04:41:17;49.60;;;8.10;;
9720;SDS011;4899;42.644;23.366;2022-07-30T04:45:19;59.53;;;9.73;;
9720;SDS011;4899;42.644;23.366;2022-07-30T04:46:48;83.87;;;11.03;;
9720;SDS011;4899;42.644;23.366;2022-07-30T04:49:46;23.70;;;6.03;;
9720;SDS011;4899;42.644;23.366;2022-07-30T04:52:15;30.63;;;7.17;;
9720;SDS011;4899;42.644;23.366;2022-07-30T04:54:58;51.40;;;10.67;;
9720;SDS011;4899;42.644;23.366;2022-07-30T04:57:42;23.37;;;5.40;;
9720;SDS011;4899;42.644;23.366;2022-07-30T05:00:28;11.10;;;4.63;;
9720;SDS011;4899;42.644;23.366;2022-07-30T05:06:25;4.90;;;4.50;;
9720;SDS011;4899;42.644;23.366;2022-07-30T05:12:16;57.87;;;9.30;;
9720;SDS011;4899;42.644;23.366;2022-07-30T05:17:04;21.97;;;5.77;;
9720;SDS011;4899;42.644;23.366;2022-07-30T05:18:43;22.57;;;6.00;;
9720;SDS011;4899;42.644;23.366;2022-07-30T05:21:40;43.43;;;7.73;;
9720;SDS011;4899;42.644;23.366;2022-07-30T05:24:14;4.73;;;4.33;;
9720;SDS011;4899;42.644;23.366;2022-07-30T05:26:54;59.83;;;9.43;;
9720;SDS011;4899;42.644;23.366;2022-07-30T05:29:44;39.37;;;6.83;;
9720;SDS011;4899;42.644;23.366;2022-07-30T05:32:25;6.17;;;3.93;;
9720;SDS011;4899;42.644;23.366;2022-07-30T05:38:04;19.93;;;5.83;;
9720;SDS011;4899;42.644;23.366;2022-07-30T05:47:47;18.60;;;5.93;;
9720;SDS011;4899;42.644;23.366;2022-07-30T06:16:16;57.53;;;9.73;;
9720;SDS011;4899;42.644;23.366;2022-07-30T06:22:08;30.83;;;6.83;;
9720;SDS011;4899;42.644;23.366;2022-07-30T06:24:38;38.57;;;8.07;;
9720;SDS011;4899;42.644;23.366;2022-07-30T06:30:57;6.83;;;4.60;;
9720;SDS011;4899;42.644;23.366;2022-07-30T06:36:37;33.00;;;7.30;;
9720;SDS011;4899;42.644;23.366;2022-07-30T06:39:10;21.40;;;6.77;;
9720;SDS011;4899;42.644;23.366;2022-07-30T06:41:51;6.73;;;5.30;;
9720;SDS011;4899;42.644;23.366;2022-07-30T06:44:19;6.57;;;5.73;;
9720;SDS011;4899;42.644;23.366;2022-07-30T06:46:46;15.90;;;6.90;;
9720;SDS011;4899;42.644;23.366;2022-07-30T06:49:13;15.37;;;5.97;;
9720;SDS011;4899;42.644;23.366;2022-07-30T06:51:43;13.60;;;6.30;;
9720;SDS011;4899;42.644;23.366;2022-07-30T06:54:11;13.03;;;5.63;;
9720;SDS011;4899;42.644;23.366;2022-07-30T06:56:38;12.70;;;6.07;;
9720;SDS011;4899;42.644;23.366;2022-07-30T06:59:05;8.63;;;5.20;;
9720;SDS011;4899;42.644;23.366;2022-07-30T07:01:32;11.63;;;6.17;;
9720;SDS011;4899;42.644;23.366;2022-07-30T07:03:58;6.27;;;4.70;;
9720;SDS011;4899;42.644;23.366;2022-07-30T07:06:25;6.97;;;5.30;;
9720;SDS011;4899;42.644;23.366;2022-07-30T07:08:54;8.03;;;5.23;;
9720;SDS011;4899;42.644;23.366;2022-07-30T07:11:21;7.83;;;5.43;;
9720;SDS011;4899;42.644;23.366;2022-07-30T07:13:48;7.73;;;4.70;;
9720;SDS011;4899;42.644;23.366;2022-07-30T07:16:14;5.03;;;4.57;;
9720;SDS011;4899;42.644;23.366;2022-07-30T07:18:45;5.57;;;4.63;;
9720;SDS011;4899;42.644;23.366;2022-07-30T07:21:12;5.83;;;4.73;;
9720;SDS011;4899;42.644;23.366;2022-07-30T07:23:39;11.20;;;5.20;;
9720;SDS011;4899;42.644;23.366;2022-07-30T07:26:10;21.23;;;5.70;;
9720;SDS011;4899;42.644;23.366;2022-07-30T07:28:37;16.70;;;5.87;;
9720;SDS011;4899;42.644;23.366;2022-07-30T07:31:05;15.97;;;6.07;;
9720;SDS011;4899;42.644;23.366;2022-07-30T07:33:32;7.30;;;4.97;;
9720;SDS011;4899;42.644;23.366;2022-07-30T07:35:59;5.13;;;4.40;;
9720;SDS011;4899;42.644;23.366;2022-07-30T07:38:26;7.03;;;4.57;;
9720;SDS011;4899;42.644;23.366;2022-07-30T07:40:53;8.10;;;4.40;;
9720;SDS011;4899;42.644;23.366;2022-07-30T07:43:21;4.90;;;4.50;;
9720;SDS011;4899;42.644;23.366;2022-07-30T07:45:49;6.33;;;4.57;;
9720;SDS011;4899;42.644;23.366;2022-07-30T07:48:16;5.40;;;4.73;;
9720;SDS011;4899;42.644;23.366;2022-07-30T07:50:43;13.17;;;5.33;;
9720;SDS011;4899;42.644;23.366;2022-07-30T07:53:10;15.87;;;5.47;;
9720;SDS011;4899;42.644;23.366;2022-07-30T07:55:38;16.33;;;5.93;;
9720;SDS011;4899;42.644;23.366;2022-07-30T07:58:05;26.13;;;7.13;;
9720;SDS011;4899;42.644;23.366;2022-07-30T08:00:33;14.30;;;6.00;;
9720;SDS011;4899;42.644;23.366;2022-07-30T08:03:03;15.33;;;6.13;;
9720;SDS011;4899;42.644;23.366;2022-07-30T08:05:31;6.53;;;4.87;;
9720;SDS011;4899;42.644;23.366;2022-07-30T08:07:58;4.90;;;4.47;;
9720;SDS011;4899;42.644;23.366;2022-07-30T08:10:25;4.70;;;4.30;;
9720;SDS011;4899;42.644;23.366;2022-07-30T08:12:52;6.67;;;4.63;;
9720;SDS011;4899;42.644;23.366;2022-07-30T08:15:19;5.93;;;4.53;;
9720;SDS011;4899;42.644;23.366;2022-07-30T08:17:48;16.47;;;5.47;;
9720;SDS011;4899;42.644;23.366;2022-07-30T08:20:15;18.40;;;5.30;;
9720;SDS011;4899;42.644;23.366;2022-07-30T08:22:42;28.43;;;6.90;;
9720;SDS011;4899;42.644;23.366;2022-07-30T08:25:11;22.90;;;5.97;;
9720;SDS011;4899;42.644;23.366;2022-07-30T08:27:42;9.53;;;4.93;;
9720;SDS011;4899;42.644;23.366;2022-07-30T08:30:11;17.43;;;5.67;;
9720;SDS011;4899;42.644;23.366;2022-07-30T08:32:38;21.37;;;6.23;;
9720;SDS011;4899;42.644;23.366;2022-07-30T08:35:07;23.70;;;6.43;;
9720;SDS011;4899;42.644;23.366;2022-07-30T08:37:37;29.70;;;6.73;;
9720;SDS011;4899;42.644;23.366;2022-07-30T08:40:05;10.03;;;5.20;;
9720;SDS011;4899;42.644;23.366;2022-07-30T08:42:36;21.50;;;5.77;;
9720;SDS011;4899;42.644;23.366;2022-07-30T08:45:04;17.97;;;5.97;;
9720;SDS011;4899;42.644;23.366;2022-07-30T08:47:33;12.27;;;5.67;;
9720;SDS011;4899;42.644;23.366;2022-07-30T08:50:01;10.85;;;5.22;;
9720;SDS011;4899;42.644;23.366;2022-07-30T08:52:32;5.23;;;4.50;;
9720;SDS011;4899;42.644;23.366;2022-07-30T08:55:03;10.40;;;4.75;;
9720;SDS011;4899;42.644;23.366;2022-07-30T08:57:31;4.63;;;4.25;;
9720;SDS011;4899;42.644;23.366;2022-07-30T09:00:03;4.43;;;4.13;;
9720;SDS011;4899;42.644;23.366;2022-07-30T09:02:33;6.95;;;4.90;;
9720;SDS011;4899;42.644;23.366;2022-07-30T09:05:07;4.57;;;4.28;;
9720;SDS011;4899;42.644;23.366;2022-07-30T09:07:41;34.33;;;8.63;;
9720;SDS011;4899;42.644;23.366;2022-07-30T09:10:11;16.65;;;5.95;;
9720;SDS011;4899;42.644;23.366;2022-07-30T09:12:54;52.40;;;9.35;;
9720;SDS011;4899;42.644;23.366;2022-07-30T09:15:45;12.13;;;4.97;;
9720;SDS011;4899;42.644;23.366;2022-07-30T09:18:51;17.13;;;5.50;;
9720;SDS011;4899;42.644;23.366;2022-07-30T09:21:24;5.57;;;4.93;;
9720;SDS011;4899;42.644;23.366;2022-07-30T09:23:58;4.80;;;4.40;;
9720;SDS011;4899;42.644;23.366;2022-07-30T09:26:28;4.85;;;4.45;;
9720;SDS011;4899;42.644;23.366;2022-07-30T09:35:22;55.53;;;9.15;;
9720;SDS011;4899;42.644;23.366;2022-07-30T09:38:17;20.50;;;5.97;;
9720;SDS011;4899;42.644;23.366;2022-07-30T09:44:12;56.08;;;8.73;;
9720;SDS011;4899;42.644;23.366;2022-07-30T09:47:00;6.68;;;4.90;;
9720;SDS011;4899;42.644;23.366;2022-07-30T09:49:30;6.28;;;5.60;;
9720;SDS011;4899;42.644;23.366;2022-07-30T09:52:06;5.75;;;4.97;;
9720;SDS011;4899;42.644;23.366;2022-07-30T09:54:45;7.72;;;4.50;;
9720;SDS011;4899;42.644;23.366;2022-07-30T10:00:36;4.80;;;3.55;;
9720;SDS011;4899;42.644;23.366;2022-07-30T10:03:19;26.38;;;6.50;;
9720;SDS011;4899;42.644;23.366;2022-07-30T10:05:56;26.08;;;6.15;;
9720;SDS011;4899;42.644;23.366;2022-07-30T10:08:51;6.78;;;5.20;;
9720;SDS011;4899;42.644;23.366;2022-07-30T10:11:21;41.17;;;7.38;;
9720;SDS011;4899;42.644;23.366;2022-07-30T10:16:50;39.95;;;8.13;;
9720;SDS011;4899;42.644;23.366;2022-07-30T10:19:17;36.25;;;7.85;;
9720;SDS011;4899;42.644;23.366;2022-07-30T10:22:36;16.98;;;6.28;;
9720;SDS011;4899;42.644;23.366;2022-07-30T10:25:47;20.73;;;6.25;;
9720;SDS011;4899;42.644;23.366;2022-07-30T10:28:50;10.15;;;5.03;;
9720;SDS011;4899;42.644;23.366;2022-07-30T10:35:02;8.55;;;5.28;;
9720;SDS011;4899;42.644;23.366;2022-07-30T10:37:39;44.25;;;9.13;;
9720;SDS011;4899;42.644;23.366;2022-07-30T10:40:34;66.70;;;11.98;;
9720;SDS011;4899;42.644;23.366;2022-07-30T10:43:32;6.10;;;5.60;;
9720;SDS011;4899;42.644;23.366;2022-07-30T10:49:29;6.20;;;5.75;;
9720;SDS011;4899;42.644;23.366;2022-07-30T10:52:06;23.58;;;7.85;;
9720;SDS011;4899;42.644;23.366;2022-07-30T10:54:35;21.90;;;7.57;;
9720;SDS011;4899;42.644;23.366;2022-07-30T10:57:04;16.88;;;7.95;;
9720;SDS011;4899;42.644;23.366;2022-07-30T11:02:35;14.40;;;7.03;;
9720;SDS011;4899;42.644;23.366;2022-07-30T11:05:47;9.88;;;5.82;;
9720;SDS011;4899;42.644;23.366;2022-07-30T11:11:46;19.23;;;6.18;;
9720;SDS011;4899;42.644;23.366;2022-07-30T11:17:59;5.82;;;5.25;;
9720;SDS011;4899;42.644;23.366;2022-07-30T11:21:12;22.38;;;6.90;;
9720;SDS011;4899;42.644;23.366;2022-07-30T11:23:36;10.48;;;6.07;;
9720;SDS011;4899;42.644;23.366;2022-07-30T11:26:45;14.40;;;6.07;;
9720;SDS011;4899;42.644;23.366;2022-07-30T11:29:38;34.28;;;8.02;;
9720;SDS011;4899;42.644;23.366;2022-07-30T11:35:16;7.10;;;5.55;;
9720;SDS011;4899;42.644;23.366;2022-07-30T11:38:18;5.97;;;5.40;;
9720;SDS011;4899;42.644;23.366;2022-07-30T11:41:09;16.35;;;6.18;;
9720;SDS011;4899;42.644;23.366;2022-07-30T11:43:39;31.08;;;7.53;;
9720;SDS011;4899;42.644;23.366;2022-07-30T11:49:17;10.32;;;5.78;;
9720;SDS011;4899;42.644;23.366;2022-07-30T11:51:47;49.67;;;9.95;;
9720;SDS011;4899;42.644;23.366;2022-07-30T11:54:14;44.42;;;8.80;;
9720;SDS011;4899;42.644;23.366;2022-07-30T11:56:54;33.63;;;8.77;;
9720;SDS011;4899;42.644;23.366;2022-07-30T11:59:26;13.50;;;6.13;;
9720;SDS011;4899;42.644;23.366;2022-07-30T12:05:15;30.02;;;7.72;;
9720;SDS011;4899;42.644;23.366;2022-07-30T12:07:54;6.30;;;5.60;;
9720;SDS011;4899;42.644;23.366;2022-07-30T12:10:24;5.65;;;5.18;;
9720;SDS011;4899;42.644;23.366;2022-07-30T12:13:05;6.05;;;5.63;;
9720;SDS011;4899;42.644;23.366;2022-07-30T12:15:41;16.10;;;6.68;;
9720;SDS011;4899;42.644;23.366;2022-07-30T12:18:27;31.80;;;7.65;;
9720;SDS011;4899;42.644;23.366;2022-07-30T12:21:04;12.15;;;6.60;;
9720;SDS011;4899;42.644;23.366;2022-07-30T12:24:09;21.92;;;7.78;;
9720;SDS011;4899;42.644;23.366;2022-07-30T12:26:47;5.78;;;5.28;;
9720;SDS011;4899;42.644;23.366;2022-07-30T12:29:14;5.97;;;5.53;;
9720;SDS011;4899;42.644;23.366;2022-07-30T12:31:42;6.13;;;5.63;;
9720;SDS011;4899;42.644;23.366;2022-07-30T12:34:21;13.00;;;6.13;;
9720;SDS011;4899;42.644;23.366;2022-07-30T12:36:51;5.75;;;5.28;;
9720;SDS011;4899;42.644;23.366;2022-07-30T12:39:30;13.52;;;6.25;;
9720;SDS011;4899;42.644;23.366;2022-07-30T12:42:05;12.75;;;9.80;;
9720;SDS011;4899;42.644;23.366;2022-07-30T12:44:50;12.98;;;10.07;;
9720;SDS011;4899;42.644;23.366;2022-07-30T12:47:19;33.20;;;8.18;;
9720;SDS011;4899;42.644;23.366;2022-07-30T12:50:14;18.27;;;6.70;;
9720;SDS011;4899;42.644;23.366;2022-07-30T12:52:46;6.75;;;5.88;;
9720;SDS011;4899;42.644;23.366;2022-07-30T12:55:15;5.88;;;5.30;;
9720;SDS011;4899;42.644;23.366;2022-07-30T12:57:55;7.03;;;6.30;;
9720;SDS011;4899;42.644;23.366;2022-07-30T13:00:25;6.82;;;6.25;;
9720;SDS011;4899;42.644;23.366;2022-07-30T13:02:54;6.13;;;5.70;;
9720;SDS011;4899;42.644;23.366;2022-07-30T13:05:42;10.75;;;6.07;;
9720;SDS011;4899;42.644;23.366;2022-07-30T13:08:18;24.80;;;7.00;;
9720;SDS011;4899;42.644;23.366;2022-07-30T13:10:54;8.60;;;6.00;;
9720;SDS011;4899;42.644;23.366;2022-07-30T13:13:21;6.43;;;5.85;;
9720;SDS011;4899;42.644;23.366;2022-07-30T13:15:58;12.13;;;6.57;;
9720;SDS011;4899;42.644;23.366;2022-07-30T13:18:33;5.93;;;5.43;;
9720;SDS011;4899;42.644;23.366;2022-07-30T13:21:18;21.23;;;6.72;;
9720;SDS011;4899;42.644;23.366;2022-07-30T13:23:51;30.48;;;7.53;;
9720;SDS011;4899;42.644;23.366;2022-07-30T13:26:28;9.90;;;7.68;;
9720;SDS011;4899;42.644;23.366;2022-07-30T13:28:57;13.48;;;6.60;;
9720;SDS011;4899;42.644;23.366;2022-07-30T13:31:27;17.65;;;7.00;;
9720;SDS011;4899;42.644;23.366;2022-07-30T13:34:01;8.35;;;5.88;;
9720;SDS011;4899;42.644;23.366;2022-07-30T13:39:17;57.25;;;10.23;;
9720;SDS011;4899;42.644;23.366;2022-07-30T13:41:59;10.00;;;5.55;;
9720;SDS011;4899;42.644;23.366;2022-07-30T13:44:40;13.57;;;5.97;;
9720;SDS011;4899;42.644;23.366;2022-07-30T13:47:08;14.13;;;6.00;;
9720;SDS011;4899;42.644;23.366;2022-07-30T13:49:35;23.33;;;6.55;;
9720;SDS011;4899;42.644;23.366;2022-07-30T13:52:14;30.25;;;7.35;;
9720;SDS011;4899;42.644;23.366;2022-07-30T13:54:44;31.00;;;8.18;;
9720;SDS011;4899;42.644;23.366;2022-07-30T13:57:22;17.75;;;6.65;;
9720;SDS011;4899;42.644;23.366;2022-07-30T14:00:20;26.05;;;11.13;;
9720;SDS011;4899;42.644;23.366;2022-07-30T14:02:58;24.13;;;9.32;;
9720;SDS011;4899;42.644;23.366;2022-07-30T14:05:27;7.38;;;6.05;;
9720;SDS011;4899;42.644;23.366;2022-07-30T14:08:14;21.40;;;7.10;;
9720;SDS011;4899;42.644;23.366;2022-07-30T14:11:08;15.77;;;7.45;;
9720;SDS011;4899;42.644;23.366;2022-07-30T14:13:34;16.55;;;7.85;;
9720;SDS011;4899;42.644;23.366;2022-07-30T14:16:02;7.35;;;6.85;;
9720;SDS011;4899;42.644;23.366;2022-07-30T14:18:29;8.18;;;7.50;;
9720;SDS011;4899;42.644;23.366;2022-07-30T14:20:58;5.90;;;5.40;;
9720;SDS011;4899;42.644;23.366;2022-07-30T14:23:27;6.38;;;5.85;;
9720;SDS011;4899;42.644;23.366;2022-07-30T14:25:55;6.72;;;6.22;;
9720;SDS011;4899;42.644;23.366;2022-07-30T14:28:22;32.67;;;8.43;;
9720;SDS011;4899;42.644;23.366;2022-07-30T14:30:50;15.88;;;7.80;;
9720;SDS011;4899;42.644;23.366;2022-07-30T14:33:21;6.60;;;6.03;;
9720;SDS011;4899;42.644;23.366;2022-07-30T14:35:51;12.13;;;6.38;;
9720;SDS011;4899;42.644;23.366;2022-07-30T14:38:18;8.77;;;7.88;;
9720;SDS011;4899;42.644;23.366;2022-07-30T14:40:50;20.17;;;7.22;;
9720;SDS011;4899;42.644;23.366;2022-07-30T14:43:20;29.20;;;8.10;;
9720;SDS011;4899;42.644;23.366;2022-07-30T14:45:49;29.63;;;8.10;;
9720;SDS011;4899;42.644;23.366;2022-07-30T14:48:23;6.78;;;6.20;;
9720;SDS011;4899;42.644;23.366;2022-07-30T14:50:50;37.90;;;9.07;;
9720;SDS011;4899;42.644;23.366;2022-07-30T14:53:39;17.10;;;6.35;;
9720;SDS011;4899;42.644;23.366;2022-07-30T14:56:11;7.45;;;6.75;;
9720;SDS011;4899;42.644;23.366;2022-07-30T14:58:55;7.97;;;5.40;;
9720;SDS011;4899;42.644;23.366;2022-07-30T15:01:56;38.28;;;8.77;;
9720;SDS011;4899;42.644;23.366;2022-07-30T15:05:04;6.35;;;5.68;;
9720;SDS011;4899;42.644;23.366;2022-07-30T15:07:18;16.05;;;6.38;;
9720;SDS011;4899;42.644;23.366;2022-07-30T15:10:01;15.85;;;6.35;;
9720;SDS011;4899;42.644;23.366;2022-07-30T15:28:32;6.25;;;5.70;;
9720;SDS011;4899;42.644;23.366;2022-07-30T15:31:09;40.22;;;8.45;;
9720;SDS011;4899;42.644;23.366;2022-07-30T15:33:39;25.25;;;6.68;;
9720;SDS011;4899;42.644;23.366;2022-07-30T15:36:43;13.27;;;6.70;;
9720;SDS011;4899;42.644;23.366;2022-07-30T15:40:43;33.80;;;9.27;;
9720;SDS011;4899;42.644;23.366;2022-07-30T15:42:42;25.17;;;7.03;;
9720;SDS011;4899;42.644;23.366;2022-07-30T15:53:18;33.28;;;6.50;;
9720;SDS011;4899;42.644;23.366;2022-07-30T15:56:04;50.05;;;8.73;;
9720;SDS011;4899;42.644;23.366;2022-07-30T15:58:40;15.48;;;5.57;;
9720;SDS011;4899;42.644;23.366;2022-07-30T16:27:11;28.58;;;6.97;;
9720;SDS011;4899;42.644;23.366;2022-07-30T16:30:03;8.48;;;5.28;;
9720;SDS011;4899;42.644;23.366;2022-07-30T16:32:38;30.25;;;7.20;;
9720;SDS011;4899;42.644;23.366;2022-07-30T16:35:40;27.23;;;6.88;;
9720;SDS011;4899;42.644;23.366;2022-07-30T16:38:06;15.50;;;6.10;;
9720;SDS011;4899;42.644;23.366;2022-07-30T16:43:27;5.63;;;5.03;;
9720;SDS011;4899;42.644;23.366;2022-07-30T16:45:57;5.45;;;4.80;;
9720;SDS011;4899;42.644;23.366;2022-07-30T16:48:25;5.70;;;5.30;;
9720;SDS011;4899;42.644;23.366;2022-07-30T16:51:29;61.30;;;11.18;;
9720;SDS011;4899;42.644;23.366;2022-07-30T16:54:23;41.53;;;11.27;;
9720;SDS011;4899;42.644;23.366;2022-07-30T16:57:01;28.17;;;14.43;;
9720;SDS011;4899;42.644;23.366;2022-07-30T17:00:21;62.07;;;13.83;;
9720;SDS011;4899;42.644;23.366;2022-07-30T17:02:31;17.60;;;10.83;;
9720;SDS011;4899;42.644;23.366;2022-07-30T17:05:07;37.83;;;10.57;;
9720;SDS011;4899;42.644;23.366;2022-07-30T17:09:18;44.97;;;13.20;;
9720;SDS011;4899;42.644;23.366;2022-07-30T17:10:35;17.33;;;9.10;;
9720;SDS011;4899;42.644;23.366;2022-07-30T17:13:17;11.47;;;10.23;;
9720;SDS011;4899;42.644;23.366;2022-07-30T17:15:44;13.63;;;8.30;;
9720;SDS011;4899;42.644;23.366;2022-07-30T17:18:11;15.00;;;8.27;;
9720;SDS011;4899;42.644;23.366;2022-07-30T17:20:38;15.07;;;7.80;;
9720;SDS011;4899;42.644;23.366;2022-07-30T17:23:05;18.17;;;8.20;;
9720;SDS011;4899;42.644;23.366;2022-07-30T17:25:33;13.80;;;11.37;;
9720;SDS011;4899;42.644;23.366;2022-07-30T17:28:00;13.53;;;12.17;;
9720;SDS011;4899;42.644;23.366;2022-07-30T17:30:28;8.40;;;7.70;;
9720;SDS011;4899;42.644;23.366;2022-07-30T17:32:55;9.40;;;6.90;;
9720;SDS011;4899;42.644;23.366;2022-07-30T17:35:22;8.90;;;8.00;;
9720;SDS011;4899;42.644;23.366;2022-07-30T17:37:50;8.20;;;7.27;;
9720;SDS011;4899;42.644;23.366;2022-07-30T17:40:17;19.03;;;8.17;;
9720;SDS011;4899;42.644;23.366;2022-07-30T17:42:44;16.67;;;8.13;;
9720;SDS011;4899;42.644;23.366;2022-07-30T17:45:11;34.90;;;9.40;;
9720;SDS011;4899;42.644;23.366;2022-07-30T17:47:39;16.00;;;7.20;;
9720;SDS011;4899;42.644;23.366;2022-07-30T17:50:09;28.83;;;8.33;;
9720;SDS011;4899;42.644;23.366;2022-07-30T17:53:45;73.50;;;12.10;;
9720;SDS011;4899;42.644;23.366;2022-07-30T17:55:31;8.90;;;7.80;;
9720;SDS011;4899;42.644;23.366;2022-07-30T17:58:07;39.00;;;9.00;;
9720;SDS011;4899;42.644;23.366;2022-07-30T18:00:48;19.83;;;7.70;;
9720;SDS011;4899;42.644;23.366;2022-07-30T18:03:32;9.57;;;6.97;;
9720;SDS011;4899;42.644;23.366;2022-07-30T18:06:27;25.33;;;7.87;;
9720;SDS011;4899;42.644;23.366;2022-07-30T18:08:54;8.67;;;7.07;;
9720;SDS011;4899;42.644;23.366;2022-07-30T18:12:31;21.57;;;8.43;;
9720;SDS011;4899;42.644;23.366;2022-07-30T18:14:40;21.03;;;7.90;;
9720;SDS011;4899;42.644;23.366;2022-07-30T18:17:16;77.50;;;12.83;;
9720;SDS011;4899;42.644;23.366;2022-07-30T18:19:44;55.90;;;11.43;;
9720;SDS011;4899;42.644;23.366;2022-07-30T18:22:11;57.23;;;10.90;;
9720;SDS011;4899;42.644;23.366;2022-07-30T18:24:38;37.20;;;8.53;;
9720;SDS011;4899;42.644;23.366;2022-07-30T18:27:05;28.93;;;8.73;;
9720;SDS011;4899;42.644;23.366;2022-07-30T18:29:32;17.70;;;7.97;;